sensor_id;sensor_type;location;lat;lon;timestamp;P1;durP1;ratioP1;P2;durP2;ratioP2
16242;SDS011;11719;51.052;6.982;2023-04-25T00:01:31;2.50;;;1.30;;
16242;SDS011;11719;51.052;6.982;2023-04-25T00:04:01;5.17;;;1.30;;
16242;SDS011;11719;51.052;6.982;2023-04-25T00:06:27;4.67;;;1.47;;
16242;SDS011;11719;51.052;6.982;2023-04-25T00:08:55;3.23;;;0.93;;
16242;SDS011;11719;51.052;6.982;2023-04-25T00:11:21;2.27;;;1.30;;
16242;SDS011;11719;51.052;6.982;2023-04-25T00:13:48;1.77;;;1.07;;
16242;SDS011;11719;51.052;6.982;2023-04-25T00:16:15;1.17;;;1.00;;
16242;SDS011;11719;51.052;6.982;2023-04-25T00:18:42;3.83;;;0.90;;
16242;SDS011;11719;51.052;6.982;2023-04-25T00:21:08;1.33;;;0.73;;
16242;SDS011;11719;51.052;6.982;2023-04-25T00:23:34;1.57;;;0.90;;
16242;SDS011;11719;51.052;6.982;2023-04-25T00:26:01;1.93;;;1.20;;
16242;SDS011;11719;51.052;6.982;2023-04-25T00:28:27;2.93;;;1.37;;
16242;SDS011;11719;51.052;6.982;2023-04-25T00:30:53;2.63;;;0.87;;
16242;SDS011;11719;51.052;6.982;2023-04-25T00:33:19;3.33;;;1.07;;
16242;SDS011;11719;51.052;6.982;2023-04-25T00:35:44;1.73;;;1.00;;
16242;SDS011;11719;51.052;6.982;2023-04-25T00:38:10;5.27;;;1.57;;
16242;SDS011;11719;51.052;6.982;2023-04-25T00:40:36;1.50;;;0.80;;
16242;SDS011;11719;51.052;6.982;2023-04-25T00:43:02;2.90;;;1.17;;
16242;SDS011;11719;51.052;6.982;2023-04-25T00:45:28;2.30;;;0.90;;
16242;SDS011;11719;51.052;6.982;2023-04-25T00:47:55;2.93;;;1.13;;
16242;SDS011;11719;51.052;6.982;2023-04-25T00:50:22;5.70;;;1.27;;
16242;SDS011;11719;51.052;6.982;2023-04-25T00:52:48;4.20;;;1.00;;
16242;SDS011;11719;51.052;6.982;2023-04-25T00:55:14;1.70;;;0.97;;
16242;SDS011;11719;51.052;6.982;2023-04-25T00:57:40;3.63;;;1.33;;
16242;SDS011;11719;51.052;6.982;2023-04-25T01:00:07;3.63;;;0.97;;
16242;SDS011;11719;51.052;6.982;2023-04-25T01:02:35;3.10;;;0.80;;
16242;SDS011;11719;51.052;6.982;2023-04-25T01:05:02;5.60;;;1.40;;
16242;SDS011;11719;51.052;6.982;2023-04-25T01:07:28;8.67;;;1.47;;
16242;SDS011;11719;51.052;6.982;2023-04-25T01:09:55;3.73;;;1.03;;
16242;SDS011;11719;51.052;6.982;2023-04-25T01:12:21;5.20;;;1.30;;
16242;SDS011;11719;51.052;6.982;2023-04-25T01:14:48;3.17;;;1.00;;
16242;SDS011;11719;51.052;6.982;2023-04-25T01:17:14;2.10;;;1.03;;
16242;SDS011;11719;51.052;6.982;2023-04-25T01:19:42;12.10;;;1.70;;
16242;SDS011;11719;51.052;6.982;2023-04-25T01:22:09;2.60;;;1.00;;
16242;SDS011;11719;51.052;6.982;2023-04-25T01:24:35;2.40;;;1.00;;
16242;SDS011;11719;51.052;6.982;2023-04-25T01:27:02;2.33;;;1.23;;
16242;SDS011;11719;51.052;6.982;2023-04-25T01:29:28;2.83;;;1.27;;
16242;SDS011;11719;51.052;6.982;2023-04-25T01:31:55;1.93;;;0.87;;
16242;SDS011;11719;51.052;6.982;2023-04-25T01:34:23;2.30;;;1.13;;
16242;SDS011;11719;51.052;6.982;2023-04-25T01:36:50;1.87;;;1.10;;
16242;SDS011;11719;51.052;6.982;2023-04-25T01:39:17;1.73;;;1.00;;
16242;SDS011;11719;51.052;6.982;2023-04-25T01:41:43;1.53;;;0.87;;
16242;SDS011;11719;51.052;6.982;2023-04-25T01:44:11;1.37;;;0.83;;
16242;SDS011;11719;51.052;6.982;2023-04-25T01:46:37;1.73;;;1.23;;
16242;SDS011;11719;51.052;6.982;2023-04-25T01:49:03;1.20;;;0.90;;
16242;SDS011;11719;51.052;6.982;2023-04-25T01:51:29;8.80;;;1.00;;
16242;SDS011;11719;51.052;6.982;2023-04-25T01:53:56;1.33;;;0.90;;
16242;SDS011;11719;51.052;6.982;2023-04-25T01:56:22;1.40;;;0.80;;
16242;SDS011;11719;51.052;6.982;2023-04-25T01:58:48;1.97;;;1.13;;
16242;SDS011;11719;51.052;6.982;2023-04-25T02:01:14;2.50;;;0.63;;
16242;SDS011;11719;51.052;6.982;2023-04-25T02:03:40;2.13;;;0.73;;
16242;SDS011;11719;51.052;6.982;2023-04-25T02:06:06;2.80;;;1.00;;
16242;SDS011;11719;51.052;6.982;2023-04-25T02:08:31;1.47;;;0.80;;
16242;SDS011;11719;51.052;6.982;2023-04-25T02:10:58;1.90;;;0.80;;
16242;SDS011;11719;51.052;6.982;2023-04-25T02:13:24;0.63;;;0.60;;
16242;SDS011;11719;51.052;6.982;2023-04-25T02:15:49;5.87;;;1.07;;
16242;SDS011;11719;51.052;6.982;2023-04-25T02:18:15;2.47;;;1.30;;
16242;SDS011;11719;51.052;6.982;2023-04-25T02:20:41;0.97;;;0.67;;
16242;SDS011;11719;51.052;6.982;2023-04-25T02:23:08;1.67;;;0.87;;
16242;SDS011;11719;51.052;6.982;2023-04-25T02:25:34;3.47;;;1.00;;
16242;SDS011;11719;51.052;6.982;2023-04-25T02:27:59;1.87;;;1.07;;
16242;SDS011;11719;51.052;6.982;2023-04-25T02:30:25;2.73;;;1.00;;
16242;SDS011;11719;51.052;6.982;2023-04-25T02:32:51;2.17;;;0.83;;
16242;SDS011;11719;51.052;6.982;2023-04-25T02:35:17;2.50;;;0.50;;
16242;SDS011;11719;51.052;6.982;2023-04-25T02:37:43;2.47;;;1.20;;
16242;SDS011;11719;51.052;6.982;2023-04-25T02:40:09;2.00;;;0.73;;
16242;SDS011;11719;51.052;6.982;2023-04-25T02:42:35;3.57;;;0.80;;
16242;SDS011;11719;51.052;6.982;2023-04-25T02:45:01;1.27;;;0.80;;
16242;SDS011;11719;51.052;6.982;2023-04-25T02:47:28;2.23;;;1.20;;
16242;SDS011;11719;51.052;6.982;2023-04-25T02:49:54;3.07;;;0.83;;
16242;SDS011;11719;51.052;6.982;2023-04-25T02:52:19;9.90;;;1.37;;
16242;SDS011;11719;51.052;6.982;2023-04-25T02:54:46;0.80;;;0.80;;
16242;SDS011;11719;51.052;6.982;2023-04-25T02:57:11;1.30;;;0.93;;
16242;SDS011;11719;51.052;6.982;2023-04-25T02:59:37;6.17;;;1.10;;
16242;SDS011;11719;51.052;6.982;2023-04-25T03:02:03;1.50;;;0.80;;
16242;SDS011;11719;51.052;6.982;2023-04-25T03:04:29;1.90;;;0.97;;
16242;SDS011;11719;51.052;6.982;2023-04-25T03:06:55;2.47;;;0.50;;
16242;SDS011;11719;51.052;6.982;2023-04-25T03:09:21;2.10;;;0.60;;
16242;SDS011;11719;51.052;6.982;2023-04-25T03:11:46;1.57;;;1.00;;
16242;SDS011;11719;51.052;6.982;2023-04-25T03:14:12;1.07;;;0.67;;
16242;SDS011;11719;51.052;6.982;2023-04-25T03:16:39;2.43;;;0.80;;
16242;SDS011;11719;51.052;6.982;2023-04-25T03:19:05;2.13;;;1.03;;
16242;SDS011;11719;51.052;6.982;2023-04-25T03:21:31;3.87;;;1.00;;
16242;SDS011;11719;51.052;6.982;2023-04-25T03:23:59;2.87;;;0.90;;
16242;SDS011;11719;51.052;6.982;2023-04-25T03:26:26;1.90;;;0.90;;
16242;SDS011;11719;51.052;6.982;2023-04-25T03:28:52;1.73;;;0.80;;
16242;SDS011;11719;51.052;6.982;2023-04-25T03:31:17;1.63;;;0.77;;
16242;SDS011;11719;51.052;6.982;2023-04-25T03:33:43;2.67;;;1.00;;
16242;SDS011;11719;51.052;6.982;2023-04-25T03:36:09;1.63;;;0.83;;
16242;SDS011;11719;51.052;6.982;2023-04-25T03:38:35;1.53;;;0.90;;
16242;SDS011;11719;51.052;6.982;2023-04-25T03:41:01;2.70;;;1.00;;
16242;SDS011;11719;51.052;6.982;2023-04-25T03:43:27;0.77;;;0.67;;
16242;SDS011;11719;51.052;6.982;2023-04-25T03:45:53;3.23;;;1.17;;
16242;SDS011;11719;51.052;6.982;2023-04-25T03:48:19;1.10;;;0.80;;
16242;SDS011;11719;51.052;6.982;2023-04-25T03:50:47;3.20;;;0.90;;
16242;SDS011;11719;51.052;6.982;2023-04-25T03:53:13;3.23;;;0.83;;
16242;SDS011;11719;51.052;6.982;2023-04-25T03:55:39;4.60;;;1.33;;
16242;SDS011;11719;51.052;6.982;2023-04-25T03:58:05;1.10;;;0.87;;
16242;SDS011;11719;51.052;6.982;2023-04-25T04:00:31;1.63;;;0.80;;
16242;SDS011;11719;51.052;6.982;2023-04-25T04:02:56;1.37;;;0.63;;
16242;SDS011;11719;51.052;6.982;2023-04-25T04:05:22;3.40;;;1.00;;
16242;SDS011;11719;51.052;6.982;2023-04-25T04:07:48;1.50;;;0.77;;
16242;SDS011;11719;51.052;6.982;2023-04-25T04:10:14;4.33;;;0.90;;
16242;SDS011;11719;51.052;6.982;2023-04-25T04:12:40;2.83;;;1.03;;
16242;SDS011;11719;51.052;6.982;2023-04-25T04:15:06;2.43;;;1.07;;
16242;SDS011;11719;51.052;6.982;2023-04-25T04:17:32;1.60;;;0.80;;
16242;SDS011;11719;51.052;6.982;2023-04-25T04:19:59;1.40;;;1.10;;
16242;SDS011;11719;51.052;6.982;2023-04-25T04:22:25;1.67;;;1.17;;
16242;SDS011;11719;51.052;6.982;2023-04-25T04:24:50;2.47;;;1.23;;
16242;SDS011;11719;51.052;6.982;2023-04-25T04:27:21;1.80;;;1.37;;
16242;SDS011;11719;51.052;6.982;2023-04-25T04:29:47;3.30;;;1.20;;
16242;SDS011;11719;51.052;6.982;2023-04-25T04:32:14;4.53;;;1.23;;
16242;SDS011;11719;51.052;6.982;2023-04-25T04:34:41;4.83;;;1.37;;
16242;SDS011;11719;51.052;6.982;2023-04-25T04:37:07;4.07;;;1.20;;
16242;SDS011;11719;51.052;6.982;2023-04-25T04:39:33;0.97;;;0.80;;
16242;SDS011;11719;51.052;6.982;2023-04-25T04:41:59;4.73;;;1.23;;
16242;SDS011;11719;51.052;6.982;2023-04-25T04:44:27;5.40;;;1.20;;
16242;SDS011;11719;51.052;6.982;2023-04-25T04:46:53;1.90;;;0.90;;
16242;SDS011;11719;51.052;6.982;2023-04-25T04:49:19;2.07;;;1.00;;
16242;SDS011;11719;51.052;6.982;2023-04-25T04:51:46;0.97;;;0.80;;
16242;SDS011;11719;51.052;6.982;2023-04-25T04:54:12;5.57;;;1.43;;
16242;SDS011;11719;51.052;6.982;2023-04-25T04:56:38;1.10;;;0.87;;
16242;SDS011;11719;51.052;6.982;2023-04-25T04:59:04;1.93;;;0.40;;
16242;SDS011;11719;51.052;6.982;2023-04-25T05:01:30;3.50;;;1.03;;
16242;SDS011;11719;51.052;6.982;2023-04-25T05:03:56;3.90;;;1.20;;
16242;SDS011;11719;51.052;6.982;2023-04-25T05:06:25;1.30;;;0.67;;
16242;SDS011;11719;51.052;6.982;2023-04-25T05:08:53;3.23;;;1.33;;
16242;SDS011;11719;51.052;6.982;2023-04-25T05:11:20;1.47;;;0.80;;
16242;SDS011;11719;51.052;6.982;2023-04-25T05:13:47;2.13;;;0.73;;
16242;SDS011;11719;51.052;6.982;2023-04-25T05:16:13;3.90;;;1.43;;
16242;SDS011;11719;51.052;6.982;2023-04-25T05:18:39;1.90;;;0.80;;
16242;SDS011;11719;51.052;6.982;2023-04-25T05:21:05;2.87;;;1.07;;
16242;SDS011;11719;51.052;6.982;2023-04-25T05:23:32;6.03;;;1.57;;
16242;SDS011;11719;51.052;6.982;2023-04-25T05:25:58;3.87;;;1.17;;
16242;SDS011;11719;51.052;6.982;2023-04-25T05:28:24;4.53;;;1.57;;
16242;SDS011;11719;51.052;6.982;2023-04-25T05:30:50;2.63;;;1.33;;
16242;SDS011;11719;51.052;6.982;2023-04-25T05:33:17;1.33;;;0.70;;
16242;SDS011;11719;51.052;6.982;2023-04-25T05:35:43;1.37;;;1.13;;
16242;SDS011;11719;51.052;6.982;2023-04-25T05:38:09;3.47;;;1.20;;
16242;SDS011;11719;51.052;6.982;2023-04-25T05:40:36;2.50;;;0.90;;
16242;SDS011;11719;51.052;6.982;2023-04-25T05:43:01;2.27;;;0.80;;
16242;SDS011;11719;51.052;6.982;2023-04-25T05:45:27;3.63;;;1.30;;
16242;SDS011;11719;51.052;6.982;2023-04-25T05:47:53;4.73;;;1.07;;
16242;SDS011;11719;51.052;6.982;2023-04-25T05:50:19;3.90;;;1.67;;
16242;SDS011;11719;51.052;6.982;2023-04-25T05:52:45;2.23;;;0.73;;
16242;SDS011;11719;51.052;6.982;2023-04-25T05:55:11;3.77;;;1.43;;
16242;SDS011;11719;51.052;6.982;2023-04-25T05:57:36;1.90;;;1.13;;
16242;SDS011;11719;51.052;6.982;2023-04-25T06:00:06;10.97;;;1.10;;
16242;SDS011;11719;51.052;6.982;2023-04-25T06:02:34;2.63;;;0.83;;
16242;SDS011;11719;51.052;6.982;2023-04-25T06:05:00;5.83;;;1.50;;
16242;SDS011;11719;51.052;6.982;2023-04-25T06:07:28;4.67;;;1.57;;
16242;SDS011;11719;51.052;6.982;2023-04-25T06:09:55;4.23;;;1.20;;
16242;SDS011;11719;51.052;6.982;2023-04-25T06:12:21;2.10;;;1.10;;
16242;SDS011;11719;51.052;6.982;2023-04-25T06:14:47;2.00;;;0.73;;
16242;SDS011;11719;51.052;6.982;2023-04-25T06:17:13;8.47;;;1.17;;
16242;SDS011;11719;51.052;6.982;2023-04-25T06:19:38;3.83;;;0.87;;
16242;SDS011;11719;51.052;6.982;2023-04-25T06:22:04;0.63;;;0.57;;
16242;SDS011;11719;51.052;6.982;2023-04-25T06:24:32;3.97;;;1.37;;
16242;SDS011;11719;51.052;6.982;2023-04-25T06:26:58;8.60;;;1.47;;
16242;SDS011;11719;51.052;6.982;2023-04-25T06:29:24;4.23;;;0.80;;
16242;SDS011;11719;51.052;6.982;2023-04-25T06:31:50;3.47;;;0.70;;
16242;SDS011;11719;51.052;6.982;2023-04-25T06:34:16;4.93;;;0.90;;
16242;SDS011;11719;51.052;6.982;2023-04-25T06:36:42;3.13;;;1.20;;
16242;SDS011;11719;51.052;6.982;2023-04-25T06:39:09;2.93;;;0.57;;
16242;SDS011;11719;51.052;6.982;2023-04-25T06:41:35;3.10;;;1.20;;
16242;SDS011;11719;51.052;6.982;2023-04-25T06:44:01;2.97;;;1.23;;
16242;SDS011;11719;51.052;6.982;2023-04-25T06:46:27;1.53;;;0.80;;
16242;SDS011;11719;51.052;6.982;2023-04-25T06:48:53;2.77;;;0.63;;
16242;SDS011;11719;51.052;6.982;2023-04-25T06:51:19;4.73;;;1.43;;
16242;SDS011;11719;51.052;6.982;2023-04-25T06:53:45;7.73;;;1.33;;
16242;SDS011;11719;51.052;6.982;2023-04-25T06:56:10;2.57;;;1.40;;
16242;SDS011;11719;51.052;6.982;2023-04-25T06:58:36;4.53;;;1.23;;
16242;SDS011;11719;51.052;6.982;2023-04-25T07:01:02;13.37;;;1.60;;
16242;SDS011;11719;51.052;6.982;2023-04-25T07:03:28;8.67;;;1.57;;
16242;SDS011;11719;51.052;6.982;2023-04-25T07:05:54;2.87;;;0.70;;
16242;SDS011;11719;51.052;6.982;2023-04-25T07:08:20;2.10;;;0.73;;
16242;SDS011;11719;51.052;6.982;2023-04-25T07:10:46;5.13;;;1.13;;
16242;SDS011;11719;51.052;6.982;2023-04-25T07:13:12;4.73;;;1.27;;
16242;SDS011;11719;51.052;6.982;2023-04-25T07:15:37;1.13;;;0.93;;
16242;SDS011;11719;51.052;6.982;2023-04-25T07:18:03;4.20;;;1.00;;
16242;SDS011;11719;51.052;6.982;2023-04-25T07:20:29;3.23;;;1.23;;
16242;SDS011;11719;51.052;6.982;2023-04-25T07:22:56;3.80;;;1.20;;
16242;SDS011;11719;51.052;6.982;2023-04-25T07:25:22;2.47;;;0.70;;
16242;SDS011;11719;51.052;6.982;2023-04-25T07:27:48;1.30;;;1.00;;
16242;SDS011;11719;51.052;6.982;2023-04-25T07:30:14;2.50;;;1.00;;
16242;SDS011;11719;51.052;6.982;2023-04-25T07:32:40;1.43;;;1.07;;
16242;SDS011;11719;51.052;6.982;2023-04-25T07:35:06;3.00;;;1.00;;
16242;SDS011;11719;51.052;6.982;2023-04-25T07:37:33;1.57;;;1.17;;
16242;SDS011;11719;51.052;6.982;2023-04-25T07:39:59;1.87;;;1.13;;
16242;SDS011;11719;51.052;6.982;2023-04-25T07:42:28;1.97;;;1.20;;
16242;SDS011;11719;51.052;6.982;2023-04-25T07:44:55;3.90;;;1.90;;
16242;SDS011;11719;51.052;6.982;2023-04-25T07:47:21;5.10;;;1.77;;
16242;SDS011;11719;51.052;6.982;2023-04-25T07:49:46;3.60;;;1.90;;
16242;SDS011;11719;51.052;6.982;2023-04-25T07:52:12;3.60;;;1.07;;
16242;SDS011;11719;51.052;6.982;2023-04-25T07:54:39;3.07;;;1.47;;
16242;SDS011;11719;51.052;6.982;2023-04-25T07:57:05;7.53;;;1.40;;
16242;SDS011;11719;51.052;6.982;2023-04-25T07:59:33;3.63;;;1.67;;
16242;SDS011;11719;51.052;6.982;2023-04-25T08:01:59;2.73;;;1.10;;
16242;SDS011;11719;51.052;6.982;2023-04-25T08:04:26;7.33;;;1.40;;
16242;SDS011;11719;51.052;6.982;2023-04-25T08:06:51;5.70;;;1.50;;
16242;SDS011;11719;51.052;6.982;2023-04-25T08:09:18;3.87;;;1.17;;
16242;SDS011;11719;51.052;6.982;2023-04-25T08:11:45;3.90;;;1.43;;
16242;SDS011;11719;51.052;6.982;2023-04-25T08:14:12;3.10;;;1.63;;
16242;SDS011;11719;51.052;6.982;2023-04-25T08:16:38;3.93;;;1.27;;
16242;SDS011;11719;51.052;6.982;2023-04-25T08:19:04;4.53;;;1.13;;
16242;SDS011;11719;51.052;6.982;2023-04-25T08:21:30;8.70;;;1.00;;
16242;SDS011;11719;51.052;6.982;2023-04-25T08:23:57;4.23;;;1.10;;
16242;SDS011;11719;51.052;6.982;2023-04-25T08:26:23;2.73;;;1.07;;
16242;SDS011;11719;51.052;6.982;2023-04-25T08:28:50;1.40;;;1.00;;
16242;SDS011;11719;51.052;6.982;2023-04-25T08:31:16;5.20;;;1.37;;
16242;SDS011;11719;51.052;6.982;2023-04-25T08:33:42;0.87;;;0.70;;
16242;SDS011;11719;51.052;6.982;2023-04-25T08:36:09;8.07;;;1.60;;
16242;SDS011;11719;51.052;6.982;2023-04-25T08:38:36;1.07;;;0.73;;
16242;SDS011;11719;51.052;6.982;2023-04-25T08:41:02;0.90;;;0.67;;
16242;SDS011;11719;51.052;6.982;2023-04-25T08:43:30;1.80;;;0.60;;
16242;SDS011;11719;51.052;6.982;2023-04-25T08:45:59;3.73;;;0.83;;
16242;SDS011;11719;51.052;6.982;2023-04-25T08:48:29;4.13;;;0.67;;
16242;SDS011;11719;51.052;6.982;2023-04-25T08:50:59;0.67;;;0.67;;
16242;SDS011;11719;51.052;6.982;2023-04-25T08:53:33;2.67;;;0.80;;
16242;SDS011;11719;51.052;6.982;2023-04-25T08:56:00;3.33;;;0.93;;
16242;SDS011;11719;51.052;6.982;2023-04-25T08:58:27;1.23;;;0.70;;
16242;SDS011;11719;51.052;6.982;2023-04-25T09:00:54;3.37;;;0.83;;
16242;SDS011;11719;51.052;6.982;2023-04-25T09:03:20;2.90;;;0.50;;
16242;SDS011;11719;51.052;6.982;2023-04-25T09:05:45;4.40;;;1.00;;
16242;SDS011;11719;51.052;6.982;2023-04-25T09:08:11;0.60;;;0.60;;
16242;SDS011;11719;51.052;6.982;2023-04-25T09:10:37;1.00;;;0.60;;
16242;SDS011;11719;51.052;6.982;2023-04-25T09:13:08;4.03;;;0.50;;
16242;SDS011;11719;51.052;6.982;2023-04-25T09:16:01;4.43;;;1.10;;
16242;SDS011;11719;51.052;6.982;2023-04-25T09:18:33;2.50;;;0.70;;
16242;SDS011;11719;51.052;6.982;2023-04-25T09:21:07;5.67;;;1.03;;
16242;SDS011;11719;51.052;6.982;2023-04-25T09:23:40;4.20;;;0.73;;
16242;SDS011;11719;51.052;6.982;2023-04-25T09:26:15;0.90;;;0.70;;
16242;SDS011;11719;51.052;6.982;2023-04-25T09:28:42;0.80;;;0.70;;
16242;SDS011;11719;51.052;6.982;2023-04-25T09:31:11;5.60;;;0.80;;
16242;SDS011;11719;51.052;6.982;2023-04-25T09:33:37;0.47;;;0.40;;
16242;SDS011;11719;51.052;6.982;2023-04-25T09:36:04;1.60;;;0.50;;
16242;SDS011;11719;51.052;6.982;2023-04-25T09:38:39;3.50;;;0.83;;
16242;SDS011;11719;51.052;6.982;2023-04-25T09:41:10;0.53;;;0.30;;
16242;SDS011;11719;51.052;6.982;2023-04-25T09:43:37;1.70;;;0.77;;
16242;SDS011;11719;51.052;6.982;2023-04-25T09:46:07;1.07;;;0.80;;
16242;SDS011;11719;51.052;6.982;2023-04-25T09:48:36;2.60;;;0.80;;
16242;SDS011;11719;51.052;6.982;2023-04-25T09:51:05;2.70;;;1.17;;
16242;SDS011;11719;51.052;6.982;2023-04-25T09:53:36;1.03;;;0.57;;
16242;SDS011;11719;51.052;6.982;2023-04-25T09:56:04;1.57;;;0.63;;
16242;SDS011;11719;51.052;6.982;2023-04-25T09:58:34;2.43;;;1.30;;
16242;SDS011;11719;51.052;6.982;2023-04-25T10:01:05;2.57;;;0.80;;
16242;SDS011;11719;51.052;6.982;2023-04-25T10:03:34;3.30;;;0.70;;
16242;SDS011;11719;51.052;6.982;2023-04-25T10:06:03;0.77;;;0.53;;
16242;SDS011;11719;51.052;6.982;2023-04-25T10:08:33;0.50;;;0.20;;
16242;SDS011;11719;51.052;6.982;2023-04-25T10:11:01;1.80;;;0.40;;
16242;SDS011;11719;51.052;6.982;2023-04-25T10:13:30;0.90;;;0.60;;
16242;SDS011;11719;51.052;6.982;2023-04-25T10:15:57;1.80;;;0.77;;
16242;SDS011;11719;51.052;6.982;2023-04-25T10:18:24;2.30;;;0.83;;
16242;SDS011;11719;51.052;6.982;2023-04-25T10:20:53;0.60;;;0.47;;
16242;SDS011;11719;51.052;6.982;2023-04-25T10:23:21;2.43;;;0.83;;
16242;SDS011;11719;51.052;6.982;2023-04-25T10:25:49;1.40;;;0.50;;
16242;SDS011;11719;51.052;6.982;2023-04-25T10:28:19;0.40;;;0.33;;
16242;SDS011;11719;51.052;6.982;2023-04-25T10:30:58;1.60;;;0.50;;
16242;SDS011;11719;51.052;6.982;2023-04-25T10:33:29;3.50;;;0.60;;
16242;SDS011;11719;51.052;6.982;2023-04-25T10:36:09;0.90;;;0.67;;
16242;SDS011;11719;51.052;6.982;2023-04-25T10:38:49;1.90;;;0.57;;
16242;SDS011;11719;51.052;6.982;2023-04-25T10:41:17;1.13;;;0.70;;
16242;SDS011;11719;51.052;6.982;2023-04-25T10:43:46;1.80;;;0.40;;
16242;SDS011;11719;51.052;6.982;2023-04-25T10:48:55;3.27;;;0.40;;
16242;SDS011;11719;51.052;6.982;2023-04-25T10:51:26;4.50;;;0.70;;
16242;SDS011;11719;51.052;6.982;2023-04-25T10:54:01;1.00;;;0.63;;
16242;SDS011;11719;51.052;6.982;2023-04-25T10:56:38;3.03;;;0.33;;
16242;SDS011;11719;51.052;6.982;2023-04-25T10:59:13;0.53;;;0.50;;
16242;SDS011;11719;51.052;6.982;2023-04-25T11:01:48;3.17;;;0.73;;
16242;SDS011;11719;51.052;6.982;2023-04-25T11:04:24;2.00;;;0.47;;
16242;SDS011;11719;51.052;6.982;2023-04-25T11:09:35;0.60;;;0.40;;
16242;SDS011;11719;51.052;6.982;2023-04-25T11:12:05;1.53;;;0.60;;
16242;SDS011;11719;51.052;6.982;2023-04-25T11:14:34;2.80;;;0.43;;
16242;SDS011;11719;51.052;6.982;2023-04-25T11:17:00;2.77;;;0.40;;
16242;SDS011;11719;51.052;6.982;2023-04-25T11:19:29;2.67;;;0.50;;
16242;SDS011;11719;51.052;6.982;2023-04-25T11:21:56;1.13;;;0.43;;
16242;SDS011;11719;51.052;6.982;2023-04-25T11:24:29;1.70;;;0.40;;
16242;SDS011;11719;51.052;6.982;2023-04-25T11:26:57;1.27;;;0.40;;
16242;SDS011;11719;51.052;6.982;2023-04-25T11:29:31;0.43;;;0.30;;
16242;SDS011;11719;51.052;6.982;2023-04-25T11:31:58;0.60;;;0.40;;
16242;SDS011;11719;51.052;6.982;2023-04-25T11:34:25;1.13;;;0.80;;
16242;SDS011;11719;51.052;6.982;2023-04-25T11:36:55;0.93;;;0.20;;
16242;SDS011;11719;51.052;6.982;2023-04-25T11:39:23;5.00;;;0.60;;
16242;SDS011;11719;51.052;6.982;2023-04-25T11:41:50;0.40;;;0.27;;
16242;SDS011;11719;51.052;6.982;2023-04-25T11:44:16;0.57;;;0.30;;
16242;SDS011;11719;51.052;6.982;2023-04-25T11:46:43;2.37;;;0.60;;
16242;SDS011;11719;51.052;6.982;2023-04-25T11:49:10;0.50;;;0.37;;
16242;SDS011;11719;51.052;6.982;2023-04-25T11:51:42;0.53;;;0.30;;
16242;SDS011;11719;51.052;6.982;2023-04-25T11:54:10;0.40;;;0.30;;
16242;SDS011;11719;51.052;6.982;2023-04-25T11:56:37;5.73;;;0.70;;
16242;SDS011;11719;51.052;6.982;2023-04-25T11:59:10;1.10;;;0.40;;
16242;SDS011;11719;51.052;6.982;2023-04-25T12:01:38;0.83;;;0.57;;
16242;SDS011;11719;51.052;6.982;2023-04-25T12:04:12;1.53;;;0.33;;
16242;SDS011;11719;51.052;6.982;2023-04-25T12:06:43;0.90;;;0.53;;
16242;SDS011;11719;51.052;6.982;2023-04-25T12:09:13;0.73;;;0.50;;
16242;SDS011;11719;51.052;6.982;2023-04-25T12:12:01;2.83;;;0.43;;
16242;SDS011;11719;51.052;6.982;2023-04-25T12:14:31;5.40;;;0.70;;
16242;SDS011;11719;51.052;6.982;2023-04-25T12:17:00;0.50;;;0.40;;
16242;SDS011;11719;51.052;6.982;2023-04-25T12:19:32;0.33;;;0.27;;
16242;SDS011;11719;51.052;6.982;2023-04-25T12:22:00;0.57;;;0.27;;
16242;SDS011;11719;51.052;6.982;2023-04-25T12:24:32;1.23;;;0.57;;
16242;SDS011;11719;51.052;6.982;2023-04-25T12:29:31;2.07;;;0.40;;
16242;SDS011;11719;51.052;6.982;2023-04-25T12:31:58;2.33;;;0.40;;
16242;SDS011;11719;51.052;6.982;2023-04-25T12:34:24;0.40;;;0.23;;
16242;SDS011;11719;51.052;6.982;2023-04-25T12:36:51;1.20;;;0.50;;
16242;SDS011;11719;51.052;6.982;2023-04-25T12:39:18;1.70;;;0.50;;
16242;SDS011;11719;51.052;6.982;2023-04-25T12:41:52;0.97;;;0.40;;
16242;SDS011;11719;51.052;6.982;2023-04-25T12:44:21;2.50;;;1.03;;
16242;SDS011;11719;51.052;6.982;2023-04-25T12:46:47;2.27;;;0.60;;
16242;SDS011;11719;51.052;6.982;2023-04-25T12:49:13;0.37;;;0.37;;
16242;SDS011;11719;51.052;6.982;2023-04-25T12:51:39;0.53;;;0.33;;
16242;SDS011;11719;51.052;6.982;2023-04-25T12:54:06;0.73;;;0.63;;
16242;SDS011;11719;51.052;6.982;2023-04-25T12:56:33;0.87;;;0.70;;
16242;SDS011;11719;51.052;6.982;2023-04-25T12:59:00;0.43;;;0.43;;
16242;SDS011;11719;51.052;6.982;2023-04-25T13:01:27;1.37;;;0.30;;
16242;SDS011;11719;51.052;6.982;2023-04-25T13:03:54;1.43;;;0.47;;
16242;SDS011;11719;51.052;6.982;2023-04-25T13:06:21;0.57;;;0.50;;
16242;SDS011;11719;51.052;6.982;2023-04-25T13:08:47;0.93;;;0.43;;
16242;SDS011;11719;51.052;6.982;2023-04-25T13:11:13;1.87;;;0.57;;
16242;SDS011;11719;51.052;6.982;2023-04-25T13:13:43;0.60;;;0.50;;
16242;SDS011;11719;51.052;6.982;2023-04-25T13:16:10;4.03;;;0.70;;
16242;SDS011;11719;51.052;6.982;2023-04-25T13:18:38;3.33;;;0.67;;
16242;SDS011;11719;51.052;6.982;2023-04-25T13:21:04;2.10;;;0.33;;
16242;SDS011;11719;51.052;6.982;2023-04-25T13:23:31;1.47;;;0.50;;
16242;SDS011;11719;51.052;6.982;2023-04-25T13:25:56;0.40;;;0.40;;
16242;SDS011;11719;51.052;6.982;2023-04-25T13:28:23;3.47;;;0.60;;
16242;SDS011;11719;51.052;6.982;2023-04-25T13:30:50;1.20;;;0.70;;
16242;SDS011;11719;51.052;6.982;2023-04-25T13:33:16;0.90;;;0.40;;
16242;SDS011;11719;51.052;6.982;2023-04-25T13:35:42;2.33;;;0.50;;
16242;SDS011;11719;51.052;6.982;2023-04-25T13:38:11;2.37;;;0.30;;
16242;SDS011;11719;51.052;6.982;2023-04-25T13:40:38;1.30;;;0.67;;
16242;SDS011;11719;51.052;6.982;2023-04-25T13:43:04;1.10;;;0.50;;
16242;SDS011;11719;51.052;6.982;2023-04-25T13:45:31;2.27;;;0.80;;
16242;SDS011;11719;51.052;6.982;2023-04-25T13:47:57;3.67;;;0.93;;
16242;SDS011;11719;51.052;6.982;2023-04-25T13:50:23;2.03;;;1.10;;
16242;SDS011;11719;51.052;6.982;2023-04-25T13:52:49;2.03;;;0.83;;
16242;SDS011;11719;51.052;6.982;2023-04-25T13:55:15;1.70;;;0.90;;
16242;SDS011;11719;51.052;6.982;2023-04-25T13:57:41;1.73;;;0.80;;
16242;SDS011;11719;51.052;6.982;2023-04-25T14:00:07;1.33;;;0.53;;
16242;SDS011;11719;51.052;6.982;2023-04-25T14:02:34;1.73;;;0.83;;
16242;SDS011;11719;51.052;6.982;2023-04-25T14:05:01;1.07;;;0.67;;
16242;SDS011;11719;51.052;6.982;2023-04-25T14:07:28;2.20;;;0.73;;
16242;SDS011;11719;51.052;6.982;2023-04-25T14:09:55;1.30;;;0.50;;
16242;SDS011;11719;51.052;6.982;2023-04-25T14:12:22;1.53;;;0.50;;
16242;SDS011;11719;51.052;6.982;2023-04-25T14:14:48;1.50;;;0.47;;
16242;SDS011;11719;51.052;6.982;2023-04-25T14:17:15;0.60;;;0.43;;
16242;SDS011;11719;51.052;6.982;2023-04-25T14:19:41;2.77;;;0.70;;
16242;SDS011;11719;51.052;6.982;2023-04-25T14:22:10;0.80;;;0.50;;
16242;SDS011;11719;51.052;6.982;2023-04-25T14:24:36;0.40;;;0.37;;
16242;SDS011;11719;51.052;6.982;2023-04-25T14:27:03;1.03;;;0.50;;
16242;SDS011;11719;51.052;6.982;2023-04-25T14:29:29;0.40;;;0.30;;
16242;SDS011;11719;51.052;6.982;2023-04-25T14:31:55;1.67;;;0.40;;
16242;SDS011;11719;51.052;6.982;2023-04-25T14:34:22;1.90;;;0.30;;
16242;SDS011;11719;51.052;6.982;2023-04-25T14:36:48;0.90;;;0.30;;
16242;SDS011;11719;51.052;6.982;2023-04-25T14:39:14;0.50;;;0.20;;
16242;SDS011;11719;51.052;6.982;2023-04-25T14:41:41;1.23;;;0.37;;
16242;SDS011;11719;51.052;6.982;2023-04-25T14:44:07;1.67;;;0.43;;
16242;SDS011;11719;51.052;6.982;2023-04-25T14:46:33;4.17;;;0.40;;
16242;SDS011;11719;51.052;6.982;2023-04-25T14:48:59;3.97;;;0.40;;
16242;SDS011;11719;51.052;6.982;2023-04-25T14:51:26;0.40;;;0.20;;
16242;SDS011;11719;51.052;6.982;2023-04-25T14:53:51;1.93;;;0.30;;
16242;SDS011;11719;51.052;6.982;2023-04-25T14:56:17;1.07;;;0.47;;